createdAt,value
2019-01-30T00:01:19.934Z,99.77
2019-01-30T00:03:52.603Z,95.70
2019-01-30T00:06:22.639Z,93.67
2019-01-30T00:08:56.773Z,90.50
2019-01-30T00:11:26.794Z,96.77
2019-01-30T00:13:57.776Z,88.00
2019-01-30T00:16:26.234Z,100.37
2019-01-30T00:18:56.175Z,89.20
2019-01-30T00:21:24.616Z,91.43
2019-01-30T00:23:53.044Z,90.67
2019-01-30T00:26:24.873Z,84.63
2019-01-30T00:28:59.148Z,84.17
2019-01-30T00:31:27.590Z,81.73
2019-01-30T00:33:56.717Z,86.07
2019-01-30T00:36:25.126Z,87.93
2019-01-30T00:38:57.855Z,82.47
2019-01-30T00:41:27.799Z,82.33
2019-01-30T00:43:57.454Z,80.67
2019-01-30T00:46:25.893Z,82.73
2019-01-30T00:48:54.327Z,76.13
2019-01-30T00:51:23.302Z,78.67
2019-01-30T00:53:53.935Z,80.47
2019-01-30T00:56:25.803Z,76.40
2019-01-30T00:58:55.889Z,77.67
2019-01-30T01:01:25.926Z,76.77
2019-01-30T01:03:59.811Z,72.33
2019-01-30T01:06:29.053Z,77.30
2019-01-30T01:08:57.493Z,76.07
2019-01-30T01:11:26.569Z,70.60
2019-01-30T01:13:56.631Z,66.77
2019-01-30T01:16:25.660Z,70.87
2019-01-30T01:18:54.032Z,70.83
2019-01-30T01:21:22.460Z,68.27
2019-01-30T01:23:50.863Z,69.97
2019-01-30T01:26:20.920Z,64.50
2019-01-30T01:28:50.972Z,69.53
2019-01-30T01:31:19.416Z,63.97
2019-01-30T01:33:47.828Z,64.20
2019-01-30T01:36:16.271Z,63.70
2019-01-30T01:38:45.238Z,66.37
2019-01-30T01:41:13.656Z,67.40
2019-01-30T01:43:42.091Z,65.40
2019-01-30T01:46:11.075Z,64.60
2019-01-30T01:48:40.116Z,58.47
2019-01-30T01:51:08.531Z,63.27
2019-01-30T01:53:38.597Z,66.97
2019-01-30T01:56:08.630Z,62.63
2019-01-30T01:58:37.061Z,60.10
2019-01-30T02:01:06.040Z,58.57
2019-01-30T02:03:37.632Z,57.17
2019-01-30T02:06:07.673Z,55.43
2019-01-30T02:08:38.281Z,60.60
2019-01-30T02:11:06.719Z,55.23
2019-01-30T02:13:37.421Z,54.40
2019-01-30T02:16:05.858Z,55.27
2019-01-30T02:18:37.191Z,58.17
2019-01-30T02:21:05.629Z,51.20
2019-01-30T02:23:35.156Z,56.30
2019-01-30T04:21:45.898Z,37.57
2019-01-30T04:24:19.103Z,35.00
2019-01-30T04:26:50.495Z,35.57
2019-01-30T04:32:08.176Z,33.67
2019-01-30T04:34:37.829Z,32.13
2019-01-30T04:37:06.233Z,30.97
2019-01-30T04:39:35.642Z,32.60
2019-01-30T04:42:04.223Z,30.73
2019-01-30T04:44:33.494Z,32.67
2019-01-30T04:47:03.556Z,37.83
2019-01-30T04:49:33.352Z,34.33
2019-01-30T04:52:02.985Z,34.13
2019-01-30T04:54:31.408Z,31.03
2019-01-30T04:57:00.731Z,34.07
2019-01-30T04:59:29.132Z,30.07
2019-01-30T05:01:58.158Z,30.53
2019-01-30T05:04:26.580Z,33.83
2019-01-30T05:06:54.997Z,31.00
2019-01-30T05:09:25.232Z,31.37
2019-01-30T05:11:53.604Z,31.47
2019-01-30T05:14:23.644Z,30.40
2019-01-30T05:16:52.078Z,28.10
2019-01-30T05:19:20.512Z,28.90
2019-01-30T05:21:50.552Z,28.13
2019-01-30T05:24:20.321Z,29.97
2019-01-30T05:26:50.097Z,30.30
2019-01-30T05:29:18.542Z,33.57
2019-01-30T05:31:48.905Z,28.87
2019-01-30T05:34:17.358Z,29.70
2019-01-30T05:36:45.774Z,26.60
2019-01-30T05:39:14.200Z,25.90
2019-01-30T05:41:44.277Z,28.73
2019-01-30T05:44:12.690Z,29.77
2019-01-30T05:46:41.120Z,27.10
2019-01-30T05:49:10.320Z,24.77
2019-01-30T05:51:38.758Z,25.23
2019-01-30T05:54:09.060Z,26.93
2019-01-30T05:56:37.505Z,28.50
2019-01-30T05:59:07.556Z,24.57
2019-01-30T06:01:37.597Z,25.53
2019-01-30T06:04:06.312Z,23.40
2019-01-30T06:06:41.254Z,25.03
2019-01-30T06:09:09.676Z,23.87
2019-01-30T06:11:39.424Z,22.80
2019-01-30T06:14:07.875Z,23.60
2019-01-30T06:16:37.912Z,20.37
2019-01-30T06:19:06.349Z,23.90
2019-01-30T06:21:35.732Z,20.83
2019-01-30T06:24:04.182Z,22.00
2019-01-30T06:26:32.593Z,23.23
2019-01-30T06:29:01.043Z,24.00
2019-01-30T06:31:29.460Z,24.37
2019-01-30T06:34:01.521Z,22.77
2019-01-30T06:36:33.656Z,22.53
2019-01-30T06:39:06.861Z,23.90
2019-01-30T06:41:36.903Z,22.23
2019-01-30T06:44:06.402Z,23.57
2019-01-30T06:46:34.839Z,22.07
2019-01-30T06:49:04.874Z,19.93
2019-01-30T06:51:33.936Z,22.17
2019-01-30T06:54:03.749Z,19.83
2019-01-30T06:56:33.206Z,22.10
2019-01-30T06:59:01.608Z,21.40
2019-01-30T07:01:30.314Z,25.20
2019-01-30T07:03:58.725Z,21.70
2019-01-30T07:06:28.788Z,20.33
2019-01-30T07:08:57.206Z,19.07
2019-01-30T07:11:27.457Z,22.30
2019-01-30T07:13:55.898Z,19.00
2019-01-30T07:16:27.292Z,19.90
2019-01-30T07:18:55.737Z,21.03
2019-01-30T07:21:24.176Z,20.27
2019-01-30T07:23:54.088Z,17.97
2019-01-30T07:26:22.494Z,21.77
2019-01-30T07:28:54.230Z,23.13
2019-01-30T07:31:22.677Z,19.57
2019-01-30T07:33:52.716Z,19.50
2019-01-30T07:36:22.777Z,18.67
2019-01-30T07:38:51.198Z,19.20
2019-01-30T07:41:19.636Z,18.67
2019-01-30T07:43:49.694Z,18.87
2019-01-30T07:46:19.182Z,23.97
2019-01-30T07:48:47.905Z,18.33
2019-01-30T07:51:17.954Z,16.90
2019-01-30T07:53:46.372Z,18.40
2019-01-30T07:56:14.796Z,16.87
2019-01-30T07:58:43.240Z,18.57
2019-01-30T08:01:12.174Z,17.37
2019-01-30T08:03:40.625Z,17.23
2019-01-30T08:06:10.057Z,16.80
2019-01-30T08:08:40.120Z,17.07
2019-01-30T08:11:08.557Z,16.83
2019-01-30T08:13:36.997Z,16.73
2019-01-30T08:16:06.611Z,15.27
2019-01-30T08:18:36.079Z,17.73
2019-01-30T08:21:04.629Z,14.67
2019-01-30T08:23:34.971Z,15.57
2019-01-30T08:26:05.092Z,15.10
2019-01-30T08:28:33.989Z,14.10
2019-01-30T08:31:02.540Z,16.77
2019-01-30T08:33:31.710Z,15.30
2019-01-30T08:36:00.160Z,15.00
2019-01-30T08:38:30.056Z,17.47
2019-01-30T08:41:01.528Z,13.83
2019-01-30T08:43:31.643Z,13.87
2019-01-30T08:46:03.270Z,13.80
2019-01-30T08:48:32.678Z,14.33
2019-01-30T08:51:01.090Z,13.70
2019-01-30T08:53:29.539Z,14.07
2019-01-30T08:55:58.517Z,14.33
2019-01-30T08:58:28.610Z,13.87
2019-01-30T09:00:57.033Z,13.07
2019-01-30T09:03:26.418Z,13.87
2019-01-30T09:05:54.855Z,12.80
2019-01-30T09:08:23.280Z,14.00
2019-01-30T09:10:51.834Z,12.43
2019-01-30T09:13:20.243Z,13.33
2019-01-30T09:15:52.325Z,12.90
2019-01-30T09:18:24.980Z,14.73
2019-01-30T09:20:56.973Z,13.07
2019-01-30T09:23:28.000Z,14.53
2019-01-30T09:25:58.145Z,11.43
2019-01-30T09:28:27.880Z,10.23
2019-01-30T09:30:57.753Z,12.63
2019-01-30T09:33:26.403Z,12.90
2019-01-30T09:35:57.516Z,10.70
2019-01-30T09:38:26.824Z,13.47
2019-01-30T09:40:55.237Z,10.83
2019-01-30T09:43:25.326Z,11.23
2019-01-30T09:45:55.353Z,10.97
2019-01-30T09:48:23.791Z,11.57
2019-01-30T09:50:53.255Z,9.67
2019-01-30T09:53:21.752Z,10.23
2019-01-30T09:55:50.104Z,19.37
2019-01-30T09:58:18.555Z,11.43
2019-01-30T10:00:47.520Z,11.80
2019-01-30T10:03:17.390Z,13.30
2019-01-30T10:05:45.800Z,11.73
2019-01-30T10:08:15.886Z,13.80
2019-01-30T10:10:45.555Z,12.10
2019-01-30T10:13:14.560Z,10.47
2019-01-30T10:15:45.809Z,17.30
2019-01-30T10:18:14.765Z,13.03
2019-01-30T10:20:46.740Z,10.40
2019-01-30T10:23:16.760Z,11.27
2019-01-30T10:25:45.745Z,10.60
2019-01-30T10:28:16.995Z,9.27
2019-01-30T10:30:47.415Z,10.40
2019-01-30T10:33:15.859Z,10.87
2019-01-30T10:35:44.260Z,8.73
2019-01-30T10:38:14.420Z,8.77
2019-01-30T10:40:45.680Z,10.93
2019-01-30T10:43:15.660Z,9.03
2019-01-30T10:45:44.530Z,8.03
2019-01-30T10:48:14.594Z,8.93
2019-01-30T10:50:43.017Z,11.87
2019-01-30T10:53:12.980Z,11.20
2019-01-30T10:55:41.421Z,9.33
2019-01-30T10:58:13.120Z,9.07
2019-01-30T11:00:46.898Z,9.63
2019-01-30T11:03:18.451Z,8.23
2019-01-30T11:05:47.751Z,8.57
2019-01-30T11:08:16.157Z,8.97
2019-01-30T11:10:44.596Z,7.43
2019-01-30T11:13:13.002Z,9.20
2019-01-30T11:15:41.566Z,8.33
2019-01-30T11:18:11.499Z,6.97
2019-01-30T11:20:39.925Z,7.40
2019-01-30T11:23:08.345Z,6.53
2019-01-30T11:25:42.478Z,6.53
2019-01-30T11:28:10.956Z,6.93
2019-01-30T11:30:43.530Z,7.63
2019-01-30T11:33:11.951Z,8.33
2019-01-30T11:35:40.404Z,9.03
2019-01-30T11:38:10.559Z,7.53
2019-01-30T11:40:38.996Z,9.43
2019-01-30T11:43:10.660Z,8.67
2019-01-30T11:45:44.007Z,10.93
2019-01-30T11:48:12.983Z,15.90
2019-01-30T11:50:43.054Z,23.40
2019-01-30T11:53:11.464Z,15.60
2019-01-30T11:55:39.902Z,14.40
2019-01-30T11:58:09.888Z,9.37
2019-01-30T12:00:42.456Z,13.70
2019-01-30T12:03:12.836Z,12.47
2019-01-30T12:05:41.502Z,10.70
2019-01-30T12:08:09.918Z,12.87
2019-01-30T12:10:38.355Z,12.17
2019-01-30T12:13:06.759Z,12.20
2019-01-30T12:15:35.197Z,17.07
2019-01-30T12:18:03.601Z,9.73
2019-01-30T12:20:32.027Z,14.00
2019-01-30T12:23:00.441Z,8.13
2019-01-30T12:25:30.477Z,12.47
2019-01-30T12:27:58.884Z,10.67
2019-01-30T12:30:28.164Z,12.03
2019-01-30T12:32:56.563Z,8.90
2019-01-30T12:35:25.064Z,8.33
2019-01-30T12:37:53.762Z,13.50
2019-01-30T12:40:25.831Z,10.30
2019-01-30T12:42:54.253Z,7.83
2019-01-30T12:45:29.141Z,9.77
2019-01-30T12:47:58.012Z,9.57
2019-01-30T12:50:26.434Z,13.00
2019-01-30T12:52:55.431Z,14.17
2019-01-30T12:55:29.389Z,16.30
2019-01-30T12:57:58.663Z,10.97
2019-01-30T13:00:33.538Z,15.47
2019-01-30T13:03:03.603Z,17.20
2019-01-30T13:05:33.463Z,18.37
2019-01-30T13:08:01.900Z,18.87
2019-01-30T13:10:31.936Z,19.67
2019-01-30T13:13:01.711Z,17.07
2019-01-30T13:15:30.208Z,15.63
2019-01-30T13:18:00.278Z,20.00
2019-01-30T13:20:28.693Z,17.97
2019-01-30T13:22:57.128Z,19.27
2019-01-30T13:25:28.444Z,16.30
2019-01-30T13:27:58.512Z,16.37
2019-01-30T13:30:31.816Z,13.70
2019-01-30T13:33:02.321Z,12.53
2019-01-30T13:35:30.756Z,11.67
2019-01-30T13:38:00.805Z,12.40
2019-01-30T13:40:35.772Z,10.47
2019-01-30T13:43:05.017Z,9.60
2019-01-30T13:45:33.457Z,11.50
2019-01-30T13:48:01.934Z,9.77
2019-01-30T13:50:30.446Z,8.67
2019-01-30T13:52:58.847Z,9.13
2019-01-30T13:55:27.309Z,12.70
2019-01-30T13:57:56.833Z,8.90
2019-01-30T14:00:31.673Z,9.17
2019-01-30T14:03:00.193Z,8.23
2019-01-30T14:05:28.676Z,10.77
2019-01-30T14:07:58.169Z,10.17
2019-01-30T14:10:27.202Z,9.47
2019-01-30T14:12:56.013Z,8.00
2019-01-30T14:15:26.365Z,8.03
2019-01-30T14:17:54.876Z,8.60
2019-01-30T14:20:24.831Z,7.87
2019-01-30T14:22:53.837Z,7.10
2019-01-30T14:25:22.232Z,7.57
2019-01-30T14:27:52.328Z,9.70
2019-01-30T14:30:26.244Z,5.77
2019-01-30T14:32:54.686Z,7.47
2019-01-30T14:35:25.524Z,7.73
2019-01-30T14:37:53.961Z,5.53
2019-01-30T14:40:22.565Z,6.73
2019-01-30T14:42:53.843Z,5.97
2019-01-30T14:45:23.362Z,5.77
2019-01-30T14:47:52.251Z,6.57
2019-01-30T14:50:25.020Z,6.53
2019-01-30T14:52:55.040Z,6.27
2019-01-30T14:55:23.471Z,7.17
2019-01-30T14:57:52.825Z,6.00
2019-01-30T15:00:30.113Z,6.97
2019-01-30T15:02:58.523Z,5.80
2019-01-30T15:05:28.275Z,9.00
2019-01-30T15:07:56.664Z,4.73
2019-01-30T15:10:27.493Z,7.43
2019-01-30T15:12:57.133Z,6.10
2019-01-30T15:15:29.296Z,5.33
2019-01-30T15:17:59.321Z,5.80
2019-01-30T15:20:34.223Z,4.90
2019-01-30T15:23:02.668Z,5.27
2019-01-30T15:25:31.087Z,4.87
2019-01-30T15:28:00.080Z,5.03
2019-01-30T15:30:32.473Z,6.43
2019-01-30T15:33:02.541Z,4.73
2019-01-30T15:35:34.113Z,4.13
2019-01-30T15:38:04.919Z,5.10
2019-01-30T15:40:33.334Z,6.40
2019-01-30T15:43:03.393Z,4.60
2019-01-30T15:45:33.061Z,5.57
2019-01-30T15:48:01.481Z,3.87
2019-01-30T15:50:35.305Z,5.93
2019-01-30T15:53:04.857Z,4.57
2019-01-30T15:55:33.289Z,4.97
2019-01-30T15:58:07.091Z,10.10
2019-01-30T16:00:38.850Z,4.30
2019-01-30T16:03:08.264Z,6.90
2019-01-30T16:05:44.457Z,8.57
2019-01-30T16:08:07.082Z,5.23
2019-01-30T16:10:36.325Z,6.60
2019-01-30T16:13:08.016Z,189.23
2019-01-30T16:15:47.313Z,1023.80
2019-01-30T16:18:15.733Z,849.93
2019-01-30T16:20:44.152Z,325.87
2019-01-30T16:23:12.849Z,193.70
2019-01-30T16:25:42.901Z,160.27
2019-01-30T16:28:11.588Z,141.50
2019-01-30T16:30:42.211Z,111.83
2019-01-30T16:33:11.426Z,99.40
2019-01-30T16:35:41.390Z,84.37
2019-01-30T16:38:10.301Z,77.40
2019-01-30T16:40:38.731Z,63.63
2019-01-30T16:43:07.326Z,60.73
2019-01-30T16:45:37.758Z,55.33
2019-01-30T16:48:07.000Z,50.23
2019-01-30T16:50:35.437Z,45.03
2019-01-30T16:53:05.225Z,40.37
2019-01-30T16:55:33.668Z,36.07
2019-01-30T16:58:02.094Z,33.53
2019-01-30T17:00:35.733Z,29.13
2019-01-30T17:03:07.425Z,25.67
2019-01-30T17:05:37.752Z,22.83
2019-01-30T17:08:06.620Z,21.40
2019-01-30T17:10:35.443Z,21.17
2019-01-30T17:13:06.928Z,19.40
2019-01-30T17:15:40.934Z,18.10
2019-01-30T17:18:11.612Z,16.30
2019-01-30T17:20:41.108Z,17.30
2019-01-30T17:23:09.517Z,15.10
2019-01-30T17:25:37.942Z,14.43
2019-01-30T17:28:06.389Z,13.80
2019-01-30T17:30:39.154Z,13.03
2019-01-30T17:33:10.637Z,11.73
2019-01-30T17:35:39.687Z,11.53
2019-01-30T17:38:08.251Z,10.57
2019-01-30T17:40:36.666Z,12.43
2019-01-30T17:43:06.040Z,10.07
2019-01-30T17:45:34.477Z,9.07
2019-01-30T17:48:02.898Z,10.53
2019-01-30T17:50:31.345Z,8.53
2019-01-30T17:52:59.754Z,9.10
2019-01-30T17:55:28.185Z,8.10
2019-01-30T17:57:56.615Z,7.83
2019-01-30T18:00:35.657Z,8.67
2019-01-30T18:03:05.703Z,7.77
2019-01-30T18:05:34.148Z,8.03
2019-01-30T18:08:02.560Z,7.87
2019-01-30T18:10:32.158Z,7.43
2019-01-30T18:13:00.585Z,9.30
2019-01-30T18:15:30.291Z,7.43
2019-01-30T18:18:00.363Z,14.10
2019-01-30T18:20:29.132Z,7.67
2019-01-30T18:23:00.561Z,8.30
2019-01-30T18:25:28.981Z,8.87
2019-01-30T18:27:57.436Z,8.83
2019-01-30T18:30:26.100Z,6.63
2019-01-30T18:32:56.392Z,6.63
2019-01-30T18:35:24.884Z,10.20
2019-01-30T18:37:54.264Z,6.37
2019-01-30T18:40:31.386Z,5.80
2019-01-30T18:43:01.065Z,5.40
2019-01-30T18:45:31.121Z,6.83
2019-01-30T18:48:00.593Z,5.17
2019-01-30T18:50:29.862Z,7.63
2019-01-30T18:52:59.998Z,4.53
2019-01-30T18:55:31.518Z,6.03
2019-01-30T18:58:00.606Z,7.33
2019-01-30T19:00:34.760Z,5.53
2019-01-30T19:03:06.239Z,5.17
2019-01-30T19:05:35.220Z,5.30
2019-01-30T19:08:03.648Z,5.67
2019-01-30T19:10:32.119Z,10.00
2019-01-30T19:13:01.999Z,5.00
2019-01-30T19:15:31.279Z,5.87
2019-01-30T19:17:59.945Z,4.60
2019-01-30T19:20:33.540Z,4.23
2019-01-30T19:23:02.020Z,6.13
2019-01-30T19:25:33.345Z,5.50
2019-01-30T19:28:02.531Z,4.90
2019-01-30T19:30:32.101Z,4.20
2019-01-30T19:33:01.161Z,4.87
2019-01-30T19:35:29.868Z,4.73
2019-01-30T19:37:59.921Z,3.70
2019-01-30T19:40:28.349Z,7.00
2019-01-30T19:42:56.760Z,4.30
2019-01-30T19:45:27.392Z,6.20
2019-01-30T19:47:59.044Z,4.60
2019-01-30T19:50:30.305Z,4.07
2019-01-30T19:53:00.413Z,3.53
2019-01-30T19:55:30.462Z,3.97
2019-01-30T19:58:00.033Z,4.73
2019-01-30T20:00:34.244Z,4.07
2019-01-30T20:03:06.476Z,4.40
2019-01-30T20:05:34.885Z,3.80
2019-01-30T20:08:03.330Z,6.60
2019-01-30T20:10:35.356Z,3.37
2019-01-30T20:13:04.286Z,4.90
2019-01-30T20:15:32.673Z,4.13
2019-01-30T20:18:01.125Z,4.67
2019-01-30T20:20:29.524Z,5.40
2019-01-30T20:22:59.563Z,3.53
2019-01-30T20:25:33.768Z,4.43
2019-01-30T20:28:02.673Z,4.00
2019-01-30T20:30:31.384Z,5.20
2019-01-30T20:33:06.282Z,4.77
2019-01-30T20:35:34.718Z,3.73
2019-01-30T20:38:04.314Z,3.57
2019-01-30T20:40:32.869Z,4.73
2019-01-30T20:43:01.276Z,3.40
2019-01-30T20:45:33.672Z,4.70
2019-01-30T20:48:03.039Z,3.57
2019-01-30T20:50:31.617Z,3.00
2019-01-30T20:53:01.685Z,2.77
2019-01-30T20:55:30.340Z,3.63
2019-01-30T20:57:58.775Z,4.60
2019-01-30T21:00:35.005Z,4.47
2019-01-30T21:03:02.824Z,3.77
2019-01-30T21:05:32.263Z,2.77
2019-01-30T21:08:01.182Z,3.60
2019-01-30T21:10:32.847Z,3.73
2019-01-30T21:13:02.420Z,2.93
2019-01-30T21:15:31.388Z,3.40
2019-01-30T21:17:59.807Z,3.13
2019-01-30T21:20:32.882Z,3.37
2019-01-30T21:23:02.766Z,3.10
2019-01-30T21:25:34.633Z,2.80
2019-01-30T21:28:04.137Z,2.73
2019-01-30T21:30:36.618Z,2.63
2019-01-30T21:33:05.103Z,3.33
2019-01-30T21:35:33.643Z,2.80
2019-01-30T21:38:03.973Z,3.00
2019-01-30T21:40:32.551Z,2.80
2019-01-30T21:43:02.124Z,2.90
2019-01-30T21:45:31.912Z,2.87
2019-01-30T21:48:00.920Z,2.53
2019-01-30T21:50:29.345Z,2.27
2019-01-30T21:52:58.340Z,2.67
2019-01-30T21:55:29.408Z,2.73
2019-01-30T21:57:57.882Z,2.53
2019-01-30T22:00:30.084Z,4.40
2019-01-30T22:02:59.745Z,2.30
2019-01-30T22:05:28.177Z,2.73
2019-01-30T22:08:01.114Z,3.07
2019-01-30T22:10:30.352Z,2.93
2019-01-30T22:13:00.127Z,3.17
2019-01-30T22:15:29.013Z,2.13
2019-01-30T22:17:59.059Z,2.30
2019-01-30T22:20:27.754Z,2.93
2019-01-30T22:22:56.729Z,3.83
2019-01-30T22:25:29.369Z,2.40
2019-01-30T22:27:59.306Z,2.17
2019-01-30T22:30:30.311Z,2.50
2019-01-30T22:32:59.315Z,2.53
2019-01-30T22:35:27.729Z,2.70
2019-01-30T22:38:11.527Z,2.60
2019-01-30T22:40:31.192Z,2.20
2019-01-30T22:43:00.315Z,2.83
2019-01-30T22:45:29.253Z,1.90
2019-01-30T22:48:00.406Z,3.23
2019-01-30T22:50:28.820Z,2.17
2019-01-30T22:52:57.889Z,3.80
2019-01-30T22:55:26.329Z,2.17
2019-01-30T22:57:55.681Z,2.10
2019-01-30T23:00:59.937Z,2.63
2019-01-30T23:03:34.106Z,2.53
2019-01-30T23:06:21.881Z,2.20
2019-01-30T23:08:57.741Z,2.03
2019-01-30T23:11:30.517Z,3.63
2019-01-30T23:14:01.993Z,2.60
2019-01-30T23:16:34.502Z,2.07
2019-01-30T23:19:07.470Z,2.53
2019-01-30T23:21:46.940Z,1.70
2019-01-30T23:24:29.650Z,1.97
2019-01-30T23:27:03.778Z,2.07
2019-01-30T23:29:36.234Z,3.13
2019-01-30T23:32:29.009Z,1.90
2019-01-30T23:35:25.113Z,1.87
2019-01-30T23:38:08.680Z,2.03
2019-01-30T23:41:06.072Z,3.77
2019-01-30T23:43:37.872Z,1.70
2019-01-30T23:46:25.546Z,1.87
2019-01-30T23:49:07.559Z,1.97
2019-01-30T23:51:51.144Z,1.63
2019-01-30T23:54:40.446Z,2.70
2019-01-30T23:57:26.073Z,2.37
